Time;durP1;ratioP1;P1;durP2;ratioP2;P2;SDS_P1;SDS_P2;PMS_P1;PMS_P2;Temp;Humidity;BMP_temperature;BMP_pressure;BME280_temperature;BME280_humidity;BME280_pressure;Samples;Min_cycle;Max_cycle;Signal;HPM_P1;HPM_P2
2021/10/26 13:03:12;;;;;;;2.60;0.93;;;15.60;99.90;;;;;;4952570;29;20295;-73
2021/10/26 13:05:51;;;;;;;1.20;0.60;;;15.80;99.90;;;;;;4943768;29;20213;-71
2021/10/26 13:08:19;;;;;;;3.43;0.60;;;15.90;99.90;;;;;;4917681;29;20226;-72
2021/10/26 13:10:45;;;;;;;3.87;0.80;;;15.90;99.90;;;;;;4926904;29;20201;-75
2021/10/26 13:13:14;;;;;;;2.93;0.70;;;16.00;99.90;;;;;;4934522;29;20336;-72
2021/10/26 13:15:43;;;;;;;6.87;1.00;;;15.80;99.90;;;;;;4934701;29;20213;-73
2021/10/26 13:18:13;;;;;;;4.53;0.80;;;15.80;99.90;;;;;;4934544;29;20233;-72
2021/10/26 13:20:47;;;;;;;1.70;0.60;;;15.80;99.90;;;;;;4934531;29;20737;-74
2021/10/26 13:23:15;;;;;;;3.23;0.77;;;15.70;99.90;;;;;;4934788;29;20211;-71
2021/10/26 13:25:45;;;;;;;7.83;1.43;;;15.60;99.90;;;;;;4935125;29;20213;-73
2021/10/26 13:28:13;;;;;;;4.10;1.07;;;15.70;99.90;;;;;;4934772;29;20229;-74
2021/10/26 13:30:47;;;;;;;4.40;1.00;;;15.60;99.90;;;;;;4934323;29;20209;-74
2021/10/26 13:33:15;;;;;;;0.93;0.70;;;15.60;99.90;;;;;;4934645;29;20232;-72
2021/10/26 13:35:43;;;;;;;5.40;1.07;;;15.60;99.90;;;;;;4934821;29;20208;-71
2021/10/26 13:38:11;;;;;;;2.23;0.73;;;15.70;99.90;;;;;;4934560;29;20228;-73
2021/10/26 13:40:38;;;;;;;3.27;0.80;;;15.60;99.90;;;;;;4933242;29;20215;-70
2021/10/26 13:43:07;;;;;;;3.17;0.90;;;15.50;99.90;;;;;;4934620;29;20216;-72
2021/10/26 13:45:35;;;;;;;3.00;0.93;;;15.50;99.90;;;;;;4934414;29;20213;-71
2021/10/26 13:48:02;;;;;;;3.70;1.30;;;15.60;99.90;;;;;;4930972;29;20240;-75
2021/10/26 13:50:30;;;;;;;1.67;0.80;;;15.60;99.90;;;;;;4932769;29;20566;-74
2021/10/26 13:52:57;;;;;;;5.63;1.27;;;15.60;99.90;;;;;;4934638;29;20247;-73
2021/10/26 13:55:24;;;;;;;3.50;0.93;;;15.70;99.90;;;;;;4932252;29;20216;-71
2021/10/26 13:57:51;;;;;;;2.63;0.90;;;15.70;99.90;;;;;;4934238;29;20232;-74
2021/10/26 14:00:18;;;;;;;3.57;0.90;;;15.70;99.90;;;;;;4933850;29;20220;-77
2021/10/26 14:02:45;;;;;;;1.53;0.97;;;15.50;99.90;;;;;;4934342;29;20304;-72
2021/10/26 14:05:13;;;;;;;1.13;0.70;;;15.40;99.90;;;;;;4933772;29;20215;-72
2021/10/26 14:07:42;;;;;;;3.47;0.93;;;15.30;99.90;;;;;;4933621;29;20330;-74
2021/10/26 14:10:11;;;;;;;3.73;1.17;;;15.30;99.90;;;;;;4933875;29;20216;-73
2021/10/26 14:12:39;;;;;;;1.03;0.70;;;15.50;99.90;;;;;;4934194;29;20236;-73
2021/10/26 14:15:07;;;;;;;5.83;0.87;;;15.70;99.90;;;;;;4934406;29;20209;-72
2021/10/26 14:17:34;;;;;;;2.23;0.70;;;15.50;99.90;;;;;;4932966;29;20312;-73
2021/10/26 14:20:01;;;;;;;3.20;0.60;;;15.50;99.90;;;;;;4931772;29;20231;-72
2021/10/26 14:22:28;;;;;;;2.50;0.60;;;15.30;99.90;;;;;;4933950;29;20205;-73
2021/10/26 14:24:56;;;;;;;3.53;0.80;;;15.20;99.90;;;;;;4933912;29;20213;-74
2021/10/26 14:27:23;;;;;;;5.20;1.00;;;15.20;99.90;;;;;;4933900;29;20235;-72
2021/10/26 14:29:50;;;;;;;4.57;1.73;;;15.30;99.90;;;;;;4933889;29;20216;-70
2021/10/26 14:32:20;;;;;;;1.70;0.70;;;15.30;99.90;;;;;;4934192;29;20215;-71
2021/10/26 14:34:49;;;;;;;2.47;0.90;;;15.40;99.90;;;;;;4934026;29;20666;-71
2021/10/26 14:37:18;;;;;;;1.70;0.90;;;15.60;99.90;;;;;;4933627;29;20229;-70
2021/10/26 14:40:10;;;;;;;3.07;0.90;;;15.50;99.90;;;;;;4933641;29;20286;-72
2021/10/26 14:42:46;;;;;;;3.20;0.97;;;15.50;99.90;;;;;;4934103;29;20260;-70
2021/10/26 14:53:46;;;;;;;1.87;1.17;;;15.20;99.90;;;;;;4937481;29;20243;-73
2021/10/26 14:56:13;;;;;;;1.90;1.10;;;15.20;99.90;;;;;;4932992;29;20328;-73
2021/10/26 14:58:43;;;;;;;1.47;0.80;;;15.10;99.90;;;;;;4917530;29;20741;-71
2021/10/26 15:01:10;;;;;;;4.83;0.90;;;15.10;99.90;;;;;;4931131;29;20589;-71
2021/10/26 15:03:38;;;;;;;2.53;0.87;;;15.10;99.90;;;;;;4936993;29;20217;-72
2021/10/26 15:06:05;;;;;;;1.27;0.80;;;15.20;99.90;;;;;;4937236;29;20212;-71
2021/10/26 15:08:36;;;;;;;3.43;0.80;;;15.20;99.90;;;;;;4936991;29;20213;-71
2021/10/26 15:11:16;;;;;;;1.23;0.70;;;15.30;99.90;;;;;;4936982;29;20272;-71
2021/10/26 15:13:46;;;;;;;1.80;0.73;;;15.20;99.90;;;;;;4936779;29;20574;-72
2021/10/26 15:16:15;;;;;;;2.93;1.07;;;15.10;99.90;;;;;;4936633;29;20209;-71
2021/10/26 15:18:44;;;;;;;10.23;4.07;;;15.00;99.90;;;;;;4936612;29;20561;-73
2021/10/26 15:21:15;;;;;;;3.60;1.20;;;15.00;99.90;;;;;;4936992;29;20215;-71
2021/10/26 15:23:59;;;;;;;5.50;1.07;;;14.90;99.90;;;;;;4936536;29;20220;-71
2021/10/26 15:34:40;;;;;;;2.63;1.13;;;14.70;99.90;;;;;;4937733;29;20372;-70
2021/10/26 15:37:09;;;;;;;2.07;1.20;;;14.60;99.90;;;;;;4937565;29;20225;-71
2021/10/26 15:39:36;;;;;;;2.13;1.30;;;14.50;99.90;;;;;;4938000;29;20208;-70
2021/10/26 15:42:04;;;;;;;3.30;1.33;;;14.40;99.90;;;;;;4937715;29;20212;-70
2021/10/26 15:44:34;;;;;;;3.70;1.53;;;14.30;99.90;;;;;;4933333;29;20216;-71
2021/10/26 15:47:01;;;;;;;1.63;0.80;;;14.20;99.90;;;;;;4936477;29;20229;-71
2021/10/26 15:49:28;;;;;;;2.20;1.13;;;14.10;99.90;;;;;;4937280;29;20239;-71
2021/10/26 15:51:55;;;;;;;3.53;1.10;;;14.00;99.90;;;;;;4936939;29;20665;-71
2021/10/26 15:54:23;;;;;;;2.23;1.30;;;14.00;99.90;;;;;;4936370;29;20331;-70
2021/10/26 15:56:50;;;;;;;5.57;1.03;;;13.90;99.90;;;;;;4937036;29;20786;-70
2021/10/26 15:59:17;;;;;;;3.17;1.20;;;13.90;99.90;;;;;;4937538;29;20220;-70
2021/10/26 16:01:47;;;;;;;4.27;1.30;;;13.80;99.90;;;;;;4937053;29;20217;-70
2021/10/26 16:04:14;;;;;;;2.40;1.40;;;13.70;99.90;;;;;;4937870;29;20247;-71
2021/10/26 16:06:41;;;;;;;6.40;1.40;;;13.60;99.90;;;;;;4937072;29;20225;-70
2021/10/26 16:09:09;;;;;;;3.23;1.37;;;13.70;99.90;;;;;;4937238;29;20213;-71
2021/10/26 16:11:45;;;;;;;2.73;1.40;;;13.50;99.90;;;;;;4937572;29;20208;-71
2021/10/26 16:14:13;;;;;;;3.23;1.50;;;13.50;99.90;;;;;;4936713;29;20719;-72
2021/10/26 16:16:41;;;;;;;6.50;1.53;;;13.50;99.90;;;;;;4937161;29;20267;-70
2021/10/26 16:19:09;;;;;;;4.60;1.70;;;13.50;99.90;;;;;;4936904;29;20670;-71
2021/10/26 16:21:38;;;;;;;3.87;1.50;;;13.50;99.90;;;;;;4936728;29;20204;-69
2021/10/26 16:24:05;;;;;;;3.67;1.30;;;13.40;99.90;;;;;;4934830;29;20678;-69
2021/10/26 16:26:34;;;;;;;2.83;1.50;;;13.40;99.90;;;;;;4936562;29;20593;-69
2021/10/26 16:29:01;;;;;;;3.87;1.63;;;13.20;99.90;;;;;;4936590;29;20205;-70
2021/10/26 16:31:30;;;;;;;2.97;1.13;;;13.10;99.90;;;;;;4936153;29;20217;-73
2021/10/26 16:33:59;;;;;;;3.00;1.33;;;13.10;99.90;;;;;;4936213;29;20288;-71
2021/10/26 16:36:30;;;;;;;2.27;1.30;;;13.00;99.90;;;;;;4936426;29;20276;-72
2021/10/26 16:38:58;;;;;;;2.87;1.77;;;13.00;99.90;;;;;;4935724;29;20215;-76
2021/10/26 16:41:25;;;;;;;3.10;1.67;;;13.00;99.90;;;;;;4932984;29;20216;-73
2021/10/26 16:44:02;;;;;;;2.00;1.37;;;13.00;99.90;;;;;;4935010;29;20208;-72
2021/10/26 16:46:35;;;;;;;2.83;1.60;;;13.00;99.90;;;;;;4915427;29;20229;-71
2021/10/26 16:49:02;;;;;;;2.33;1.57;;;13.00;99.90;;;;;;4915953;29;20214;-72
2021/10/26 16:51:31;;;;;;;3.07;1.40;;;13.10;99.90;;;;;;4927260;29;20215;-72
2021/10/26 16:54:00;;;;;;;3.83;1.57;;;13.10;99.90;;;;;;4934408;29;20245;-71
2021/10/26 16:56:27;;;;;;;5.30;1.67;;;13.10;99.90;;;;;;4934012;29;20349;-72
2021/10/26 16:58:55;;;;;;;6.30;1.77;;;13.10;99.90;;;;;;4935021;29;20205;-72
2021/10/26 17:01:25;;;;;;;2.33;1.20;;;13.10;99.90;;;;;;4934409;29;20213;-72
2021/10/26 17:03:53;;;;;;;3.83;1.90;;;13.10;99.90;;;;;;4934742;29;20666;-72
2021/10/26 17:06:21;;;;;;;5.30;1.73;;;13.10;99.90;;;;;;4914596;29;20646;-72
2021/10/26 17:08:49;;;;;;;3.93;1.70;;;13.20;99.90;;;;;;4918733;29;20276;-74
2021/10/26 17:11:17;;;;;;;4.20;2.07;;;13.20;99.90;;;;;;4934323;29;20256;-72
2021/10/26 17:13:45;;;;;;;6.20;1.97;;;13.20;99.90;;;;;;4934331;29;20258;-77
2021/10/26 17:16:13;;;;;;;6.87;2.27;;;13.20;99.90;;;;;;4933815;29;20630;-72
2021/10/26 17:18:40;;;;;;;3.40;2.00;;;13.20;99.90;;;;;;4934466;29;20239;-75
2021/10/26 17:21:07;;;;;;;4.23;2.20;;;13.20;99.90;;;;;;4934401;29;20215;-72
2021/10/26 17:23:36;;;;;;;4.97;2.17;;;13.20;99.90;;;;;;4933995;29;20217;-71
2021/10/26 17:26:06;;;;;;;4.67;2.40;;;13.20;99.90;;;;;;4933661;29;20213;-70
2021/10/26 17:28:33;;;;;;;4.50;2.80;;;13.10;99.90;;;;;;4934374;29;20558;-70
2021/10/26 17:31:00;;;;;;;4.43;2.50;;;13.00;99.90;;;;;;4934974;29;20209;-70
2021/10/26 17:33:28;;;;;;;7.63;2.80;;;13.00;99.90;;;;;;4935166;29;20213;-69
2021/10/26 17:35:56;;;;;;;7.23;3.40;;;13.00;99.90;;;;;;4934710;29;20295;-69
2021/10/26 17:38:23;;;;;;;6.40;3.33;;;13.10;99.90;;;;;;4935045;29;20717;-69
2021/10/26 17:41:01;;;;;;;6.87;2.80;;;13.10;99.90;;;;;;4935070;29;20243;-70
2021/10/26 17:43:31;;;;;;;5.90;2.60;;;13.10;99.90;;;;;;4935312;29;20209;-70
2021/10/26 17:45:58;;;;;;;6.10;2.70;;;13.20;99.90;;;;;;4935264;29;20211;-70
2021/10/26 17:48:25;;;;;;;5.47;2.33;;;13.20;99.90;;;;;;4935298;29;20235;-70
2021/10/26 17:50:55;;;;;;;3.57;2.33;;;13.20;99.90;;;;;;4935017;29;20622;-70
2021/10/26 17:53:24;;;;;;;4.53;2.60;;;13.20;99.90;;;;;;4935068;29;20215;-70
2021/10/26 17:55:52;;;;;;;6.27;2.60;;;13.20;99.90;;;;;;4934917;29;20700;-70
2021/10/26 17:58:20;;;;;;;5.20;2.50;;;13.30;99.90;;;;;;4935076;29;20247;-70
2021/10/26 18:00:50;;;;;;;4.70;2.53;;;13.30;99.90;;;;;;4935348;29;20217;-70
2021/10/26 18:03:17;;;;;;;3.93;2.63;;;13.30;99.90;;;;;;4935348;29;20219;-70
2021/10/26 18:05:44;;;;;;;4.50;2.67;;;13.30;99.90;;;;;;4934891;29;20219;-70
2021/10/26 18:08:12;;;;;;;3.37;2.30;;;13.30;99.90;;;;;;4935404;29;20231;-71
2021/10/26 18:10:42;;;;;;;6.33;2.53;;;13.30;99.90;;;;;;4935131;29;20213;-70
2021/10/26 18:13:09;;;;;;;5.63;2.87;;;13.40;99.90;;;;;;4934995;29;20213;-70
2021/10/26 18:15:37;;;;;;;6.00;3.23;;;13.30;99.90;;;;;;4934160;29;20331;-70
2021/10/26 18:18:05;;;;;;;8.27;2.90;;;13.20;99.90;;;;;;4936288;29;20228;-70
2021/10/26 18:20:32;;;;;;;6.50;2.87;;;13.20;99.90;;;;;;4938718;29;20204;-70
2021/10/26 18:22:59;;;;;;;5.23;3.40;;;13.20;99.90;;;;;;4938506;29;20213;-71
2021/10/26 18:25:26;;;;;;;4.83;2.83;;;13.20;99.90;;;;;;4938470;29;20244;-70
2021/10/26 18:27:55;;;;;;;6.27;3.10;;;13.30;99.90;;;;;;4938635;29;20315;-70
2021/10/26 18:30:22;;;;;;;6.20;3.03;;;13.30;99.90;;;;;;4938616;29;20216;-70
2021/10/26 18:32:51;;;;;;;7.60;3.60;;;13.30;99.90;;;;;;4938319;29;20221;-70
2021/10/26 18:35:21;;;;;;;7.93;3.60;;;13.40;99.90;;;;;;4938715;29;20237;-70
2021/10/26 18:37:49;;;;;;;6.07;3.20;;;13.40;99.90;;;;;;4938336;29;20251;-70
2021/10/26 18:40:20;;;;;;;5.70;2.83;;;13.40;99.90;;;;;;4938286;29;20211;-70
2021/10/26 18:42:50;;;;;;;6.77;3.30;;;13.50;99.90;;;;;;4938040;29;20264;-70
2021/10/26 18:45:24;;;;;;;5.83;3.53;;;13.60;99.90;;;;;;4938324;29;20665;-70
2021/10/26 18:47:54;;;;;;;5.57;3.23;;;13.50;99.90;;;;;;4938257;29;20264;-70
2021/10/26 18:50:24;;;;;;;7.03;3.93;;;13.60;99.90;;;;;;4938352;29;20209;-70
2021/10/26 18:52:51;;;;;;;5.30;2.90;;;13.50;99.90;;;;;;4938162;29;20634;-70
2021/10/26 18:55:18;;;;;;;5.20;2.80;;;13.50;99.90;;;;;;4938057;29;20573;-70
2021/10/26 18:57:46;;;;;;;5.30;3.13;;;13.50;99.90;;;;;;4938461;29;20229;-70
2021/10/26 19:00:15;;;;;;;5.20;2.87;;;13.50;99.90;;;;;;4938174;29;20227;-70
2021/10/26 19:02:42;;;;;;;8.37;3.13;;;13.40;99.90;;;;;;4937902;29;20216;-70
2021/10/26 19:05:10;;;;;;;5.83;3.63;;;13.40;99.90;;;;;;4937978;29;20291;-71
2021/10/26 19:07:38;;;;;;;7.07;3.67;;;13.30;99.90;;;;;;4937759;29;20701;-71
2021/10/26 19:10:07;;;;;;;6.97;3.40;;;13.30;99.90;;;;;;4938127;29;20219;-70
2021/10/26 19:12:35;;;;;;;5.90;3.10;;;13.20;99.90;;;;;;4937768;29;20215;-69
2021/10/26 19:15:02;;;;;;;7.57;3.37;;;13.30;99.90;;;;;;4937862;29;20327;-70
2021/10/26 19:17:29;;;;;;;7.43;3.17;;;13.30;99.90;;;;;;4937558;29;20239;-69
2021/10/26 19:19:56;;;;;;;6.37;3.63;;;13.30;99.90;;;;;;4937515;29;20208;-69
2021/10/26 19:22:24;;;;;;;6.73;3.60;;;13.30;99.90;;;;;;4937703;29;20209;-69
2021/10/26 19:24:53;;;;;;;4.93;3.17;;;13.30;99.90;;;;;;4937652;29;20215;-70
2021/10/26 19:27:21;;;;;;;4.93;3.30;;;13.30;99.90;;;;;;4937804;29;20236;-70
2021/10/26 19:29:50;;;;;;;6.37;3.73;;;13.30;99.90;;;;;;4937078;29;20295;-70
2021/10/26 19:32:17;;;;;;;7.07;4.03;;;13.30;99.90;;;;;;4937540;29;20209;-70
2021/10/26 19:34:44;;;;;;;7.77;4.23;;;13.50;99.90;;;;;;4937281;29;20242;-70
2021/10/26 19:37:11;;;;;;;7.07;3.87;;;13.50;99.90;;;;;;4937253;29;20235;-69
2021/10/26 19:39:39;;;;;;;6.67;3.70;;;13.60;99.90;;;;;;4936944;29;20216;-69
2021/10/26 19:42:08;;;;;;;10.47;4.57;;;13.60;99.90;;;;;;4937103;29;20211;-70
2021/10/26 19:44:36;;;;;;;6.83;3.87;;;13.50;99.90;;;;;;4936971;29;20565;-69
2021/10/26 19:47:04;;;;;;;9.20;4.30;;;13.60;99.90;;;;;;4936986;29;20283;-69
2021/10/26 19:49:32;;;;;;;8.50;4.53;;;13.50;99.90;;;;;;4937199;29;20219;-69
2021/10/26 19:52:00;;;;;;;8.67;4.03;;;13.50;99.90;;;;;;4936902;29;20602;-69
2021/10/26 19:54:28;;;;;;;7.63;4.07;;;13.50;99.90;;;;;;4937007;29;20698;-70
2021/10/26 19:56:58;;;;;;;6.67;3.70;;;13.50;99.90;;;;;;4937148;29;20323;-70
2021/10/26 19:59:26;;;;;;;7.83;4.23;;;13.50;99.90;;;;;;4937174;29;20769;-70
2021/10/26 20:01:54;;;;;;;6.20;4.03;;;13.50;99.90;;;;;;4936900;29;20222;-71
2021/10/26 20:04:21;;;;;;;7.10;3.60;;;13.60;99.90;;;;;;4936785;29;20221;-71
2021/10/26 20:06:51;;;;;;;6.00;3.57;;;13.60;99.90;;;;;;4936854;29;20229;-71
2021/10/26 20:09:18;;;;;;;7.00;4.17;;;13.60;99.90;;;;;;4936533;29;20205;-71
2021/10/26 20:11:47;;;;;;;7.40;4.10;;;13.60;99.90;;;;;;4936957;29;20216;-71
2021/10/26 20:14:16;;;;;;;9.67;4.20;;;13.70;99.90;;;;;;4936537;29;20263;-71
2021/10/26 20:16:45;;;;;;;7.23;4.20;;;13.80;99.90;;;;;;4936603;29;20229;-71
2021/10/26 20:22:21;;;;;;;6.20;3.77;;;13.70;99.90;;;;;;4933231;29;20209;-70
2021/10/26 20:24:49;;;;;;;6.83;3.23;;;13.70;99.90;;;;;;4936259;29;20212;-71
2021/10/26 20:27:28;;;;;;;6.60;3.90;;;13.70;99.90;;;;;;4936107;29;20229;-71
2021/10/26 20:29:59;;;;;;;6.10;4.00;;;13.70;99.90;;;;;;4936634;29;20569;-71
2021/10/26 20:32:28;;;;;;;6.40;3.80;;;13.70;99.90;;;;;;4936655;29;20213;-71
2021/10/26 20:34:55;;;;;;;7.80;4.03;;;13.80;99.90;;;;;;4936569;29;20319;-71
2021/10/26 20:37:23;;;;;;;6.80;3.70;;;13.80;99.90;;;;;;4933321;29;20239;-72
2021/10/26 20:39:50;;;;;;;7.70;3.50;;;13.80;99.90;;;;;;4935318;29;20213;-71
2021/10/26 20:42:17;;;;;;;7.30;3.83;;;13.80;99.90;;;;;;4934324;29;20212;-72
2021/10/26 20:44:44;;;;;;;7.07;3.90;;;13.80;99.90;;;;;;4935429;29;20247;-72
2021/10/26 20:47:11;;;;;;;9.07;3.73;;;13.80;99.90;;;;;;4935865;29;20233;-72
2021/10/26 20:49:41;;;;;;;6.07;3.40;;;13.70;99.90;;;;;;4935859;29;20215;-71
2021/10/26 20:52:09;;;;;;;6.47;3.67;;;13.70;99.90;;;;;;4935776;29;20208;-71
2021/10/26 20:54:39;;;;;;;5.57;3.63;;;13.70;99.90;;;;;;4935504;29;20213;-72
2021/10/26 20:57:06;;;;;;;5.57;3.33;;;13.70;99.90;;;;;;4935971;29;20236;-72
2021/10/26 20:59:33;;;;;;;9.73;4.23;;;13.70;99.90;;;;;;4935594;29;20208;-72
2021/10/26 21:02:02;;;;;;;6.30;3.87;;;13.60;99.90;;;;;;4935681;29;20217;-72
2021/10/26 21:04:30;;;;;;;7.13;4.27;;;13.60;99.90;;;;;;4935578;29;20562;-72
2021/10/26 21:06:58;;;;;;;9.37;3.73;;;13.70;99.90;;;;;;4935592;29;20235;-71
2021/10/26 21:09:25;;;;;;;8.70;3.77;;;13.70;99.90;;;;;;4935775;29;20213;-72
2021/10/26 21:11:52;;;;;;;9.03;3.60;;;13.70;99.90;;;;;;4935367;29;20238;-71
2021/10/26 21:14:19;;;;;;;7.20;4.67;;;13.60;99.90;;;;;;4935875;29;20539;-72
2021/10/26 21:16:46;;;;;;;5.30;3.47;;;13.50;99.90;;;;;;4935479;29;20247;-72
2021/10/26 21:19:13;;;;;;;6.80;3.83;;;13.60;99.90;;;;;;4935434;29;20208;-71
2021/10/26 21:21:40;;;;;;;7.30;3.63;;;13.70;99.90;;;;;;4935544;29;20209;-71
2021/10/26 21:24:09;;;;;;;7.80;3.60;;;13.60;99.90;;;;;;4934392;29;20207;-70
2021/10/26 21:26:38;;;;;;;6.80;4.00;;;13.60;99.90;;;;;;4934765;29;20267;-71
2021/10/26 21:29:05;;;;;;;5.20;3.13;;;13.60;99.90;;;;;;4935191;29;20204;-71
2021/10/26 21:31:35;;;;;;;5.50;3.53;;;13.50;99.90;;;;;;4934874;29;20267;-71
2021/10/26 21:34:05;;;;;;;6.40;3.20;;;13.60;99.90;;;;;;4934882;29;20219;-70
2021/10/26 21:36:37;;;;;;;9.10;4.03;;;13.70;99.90;;;;;;4935724;29;20247;-71
2021/10/26 21:39:05;;;;;;;6.67;3.37;;;13.70;99.90;;;;;;4935988;29;20241;-70
2021/10/26 21:41:34;;;;;;;5.97;3.40;;;13.70;99.90;;;;;;4935655;29;20768;-71
2021/10/26 21:44:01;;;;;;;6.00;3.40;;;13.80;99.90;;;;;;4935844;29;20212;-71
2021/10/26 21:46:28;;;;;;;7.40;3.77;;;13.70;99.90;;;;;;4935348;29;20236;-71
2021/10/26 21:48:54;;;;;;;8.07;3.30;;;13.60;99.90;;;;;;4935794;29;20231;-71
2021/10/26 21:51:22;;;;;;;8.53;3.63;;;13.60;99.90;;;;;;4936115;29;20215;-71
2021/10/26 21:53:49;;;;;;;6.53;3.30;;;13.60;99.90;;;;;;4941183;29;20295;-71
2021/10/26 21:56:17;;;;;;;9.33;3.30;;;13.60;99.90;;;;;;4942455;29;20232;-71
2021/10/26 21:58:45;;;;;;;7.77;2.90;;;13.60;99.90;;;;;;4941724;29;20240;-71
2021/10/26 22:01:12;;;;;;;8.37;3.50;;;13.50;99.90;;;;;;4941540;29;20230;-71
2021/10/26 22:03:39;;;;;;;7.57;3.30;;;13.50;99.90;;;;;;4942079;29;20208;-71
2021/10/26 22:06:07;;;;;;;7.93;2.97;;;13.50;99.90;;;;;;4942026;29;20303;-71
2021/10/26 22:08:35;;;;;;;6.70;2.90;;;13.50;99.90;;;;;;4942152;29;20271;-70
2021/10/26 22:11:02;;;;;;;6.10;2.80;;;13.40;99.90;;;;;;4941958;29;20214;-71
2021/10/26 22:13:29;;;;;;;6.23;2.80;;;13.40;99.90;;;;;;4941669;29;20208;-70
2021/10/26 22:16:03;;;;;;;7.50;3.13;;;13.40;99.90;;;;;;4941617;29;20244;-70
2021/10/26 22:18:32;;;;;;;7.77;2.90;;;13.40;99.90;;;;;;4941925;29;20216;-70
2021/10/26 22:20:59;;;;;;;5.63;3.00;;;13.50;99.90;;;;;;4941537;29;20210;-70
2021/10/26 22:23:26;;;;;;;7.23;3.20;;;13.50;99.90;;;;;;4941565;29;20208;-71
2021/10/26 22:25:53;;;;;;;6.60;3.27;;;13.50;99.90;;;;;;4941389;29;20205;-71
2021/10/26 22:28:20;;;;;;;7.80;3.23;;;13.60;99.90;;;;;;4941278;29;20257;-71
2021/10/26 22:30:47;;;;;;;5.90;2.90;;;13.60;99.90;;;;;;4941511;29;20213;-71
2021/10/26 22:33:15;;;;;;;5.63;2.83;;;13.60;99.90;;;;;;4941204;29;20211;-71
2021/10/26 22:35:42;;;;;;;5.27;2.73;;;13.70;99.90;;;;;;4941445;29;20240;-71
2021/10/26 22:38:09;;;;;;;6.63;2.87;;;13.70;99.90;;;;;;4941247;29;20265;-70
2021/10/26 22:40:37;;;;;;;5.93;3.20;;;13.70;99.90;;;;;;4941066;29;20235;-71
2021/10/26 22:43:04;;;;;;;6.57;3.10;;;13.70;99.90;;;;;;4940971;29;20730;-70
2021/10/26 22:45:31;;;;;;;4.73;3.27;;;13.70;99.90;;;;;;4940971;29;20219;-71
2021/10/26 22:47:58;;;;;;;14.00;3.00;;;13.70;99.90;;;;;;4941010;29;20246;-71
2021/10/26 22:50:26;;;;;;;6.67;3.30;;;13.70;99.90;;;;;;4941472;29;20201;-71
2021/10/26 22:52:53;;;;;;;7.97;2.70;;;13.70;99.90;;;;;;4940954;29;20209;-70
2021/10/26 22:55:20;;;;;;;4.53;2.50;;;13.70;99.90;;;;;;4940771;29;20228;-71
2021/10/26 22:57:47;;;;;;;6.33;3.00;;;13.70;99.90;;;;;;4940925;29;20731;-71
2021/10/26 23:00:15;;;;;;;10.57;3.40;;;13.80;99.90;;;;;;4940905;29;20216;-71
2021/10/26 23:02:44;;;;;;;5.57;2.93;;;13.80;99.90;;;;;;4940927;29;20209;-70
2021/10/26 23:05:11;;;;;;;6.87;2.43;;;13.80;99.90;;;;;;4937547;28;20209;-71
2021/10/26 23:07:39;;;;;;;6.97;2.67;;;13.80;99.90;;;;;;4937541;29;20239;-71
2021/10/26 23:10:07;;;;;;;8.77;3.33;;;13.80;99.90;;;;;;4937791;29;20558;-70
2021/10/26 23:12:34;;;;;;;6.67;2.57;;;13.80;99.90;;;;;;4938116;29;20209;-70
